sensor_id;sensor_type;location;lat;lon;timestamp;temperature;humidity
35523;DHT22;61478;50.820;4.330;2023-11-22T00:01:58;9.50;99.90
35523;DHT22;61478;50.820;4.330;2023-11-22T00:04:24;9.60;99.90
35523;DHT22;61478;50.820;4.330;2023-11-22T00:06:50;9.60;99.90
35523;DHT22;61478;50.820;4.330;2023-11-22T00:09:15;9.50;99.90
35523;DHT22;61478;50.820;4.330;2023-11-22T00:11:41;9.40;99.90
35523;DHT22;61478;50.820;4.330;2023-11-22T00:14:07;9.40;99.90
35523;DHT22;61478;50.820;4.330;2023-11-22T00:16:32;9.30;99.90
35523;DHT22;61478;50.820;4.330;2023-11-22T00:18:59;9.30;99.90
35523;DHT22;61478;50.820;4.330;2023-11-22T00:21:25;9.40;99.90
35523;DHT22;61478;50.820;4.330;2023-11-22T00:23:51;9.30;99.90
35523;DHT22;61478;50.820;4.330;2023-11-22T00:26:16;9.30;99.90
35523;DHT22;61478;50.820;4.330;2023-11-22T00:28:42;9.20;99.90
35523;DHT22;61478;50.820;4.330;2023-11-22T00:31:07;9.10;99.90
35523;DHT22;61478;50.820;4.330;2023-11-22T00:33:33;9.20;99.90
35523;DHT22;61478;50.820;4.330;2023-11-22T00:36:00;9.30;99.90
35523;DHT22;61478;50.820;4.330;2023-11-22T00:38:29;9.30;99.90
35523;DHT22;61478;50.820;4.330;2023-11-22T00:40:55;9.50;99.90
35523;DHT22;61478;50.820;4.330;2023-11-22T00:43:22;9.50;99.90
35523;DHT22;61478;50.820;4.330;2023-11-22T00:45:47;9.50;99.90
35523;DHT22;61478;50.820;4.330;2023-11-22T00:48:13;9.40;99.90
35523;DHT22;61478;50.820;4.330;2023-11-22T00:50:38;9.40;99.90
35523;DHT22;61478;50.820;4.330;2023-11-22T00:53:04;9.40;99.90
35523;DHT22;61478;50.820;4.330;2023-11-22T00:55:29;9.50;99.90
35523;DHT22;61478;50.820;4.330;2023-11-22T00:57:55;9.60;99.90
35523;DHT22;61478;50.820;4.330;2023-11-22T01:00:26;9.40;99.90
35523;DHT22;61478;50.820;4.330;2023-11-22T01:02:51;9.40;99.90
35523;DHT22;61478;50.820;4.330;2023-11-22T01:05:17;9.40;99.90
35523;DHT22;61478;50.820;4.330;2023-11-22T01:07:42;9.40;99.90
35523;DHT22;61478;50.820;4.330;2023-11-22T01:10:08;9.30;99.90
35523;DHT22;61478;50.820;4.330;2023-11-22T01:12:34;9.30;99.90
35523;DHT22;61478;50.820;4.330;2023-11-22T01:14:59;9.30;99.90
35523;DHT22;61478;50.820;4.330;2023-11-22T01:17:25;9.30;99.90
35523;DHT22;61478;50.820;4.330;2023-11-22T01:19:50;9.40;99.90
35523;DHT22;61478;50.820;4.330;2023-11-22T01:22:17;9.30;99.90
35523;DHT22;61478;50.820;4.330;2023-11-22T01:24:43;9.30;99.90
35523;DHT22;61478;50.820;4.330;2023-11-22T01:27:08;9.20;99.90
35523;DHT22;61478;50.820;4.330;2023-11-22T01:29:34;9.30;99.90
35523;DHT22;61478;50.820;4.330;2023-11-22T01:32:00;9.20;99.90
35523;DHT22;61478;50.820;4.330;2023-11-22T01:34:26;9.20;99.90
35523;DHT22;61478;50.820;4.330;2023-11-22T01:36:51;9.30;99.90
35523;DHT22;61478;50.820;4.330;2023-11-22T01:39:17;9.20;99.90
35523;DHT22;61478;50.820;4.330;2023-11-22T01:41:46;9.00;99.90
35523;DHT22;61478;50.820;4.330;2023-11-22T01:44:16;9.10;99.90
35523;DHT22;61478;50.820;4.330;2023-11-22T01:46:43;9.00;99.90
35523;DHT22;61478;50.820;4.330;2023-11-22T01:49:10;9.00;99.90
35523;DHT22;61478;50.820;4.330;2023-11-22T01:51:36;8.80;99.90
35523;DHT22;61478;50.820;4.330;2023-11-22T01:54:02;8.70;99.90
35523;DHT22;61478;50.820;4.330;2023-11-22T01:56:28;8.80;99.90
35523;DHT22;61478;50.820;4.330;2023-11-22T01:58:55;8.70;99.90
35523;DHT22;61478;50.820;4.330;2023-11-22T02:01:21;8.70;99.90
35523;DHT22;61478;50.820;4.330;2023-11-22T02:03:47;8.80;99.90
35523;DHT22;61478;50.820;4.330;2023-11-22T02:06:14;8.80;99.90
35523;DHT22;61478;50.820;4.330;2023-11-22T02:08:41;8.70;99.90
35523;DHT22;61478;50.820;4.330;2023-11-22T02:11:08;8.70;99.90
35523;DHT22;61478;50.820;4.330;2023-11-22T02:13:33;8.50;99.90
35523;DHT22;61478;50.820;4.330;2023-11-22T02:15:59;8.50;99.90
35523;DHT22;61478;50.820;4.330;2023-11-22T02:18:26;8.50;99.90
35523;DHT22;61478;50.820;4.330;2023-11-22T02:20:52;8.60;99.90
35523;DHT22;61478;50.820;4.330;2023-11-22T02:23:17;8.70;99.90
35523;DHT22;61478;50.820;4.330;2023-11-22T02:25:43;8.50;99.90
35523;DHT22;61478;50.820;4.330;2023-11-22T02:28:09;8.50;99.90
35523;DHT22;61478;50.820;4.330;2023-11-22T02:30:35;8.60;99.90
35523;DHT22;61478;50.820;4.330;2023-11-22T02:33:01;8.50;99.90
35523;DHT22;61478;50.820;4.330;2023-11-22T02:35:26;8.50;99.90
35523;DHT22;61478;50.820;4.330;2023-11-22T02:37:55;8.40;99.90
35523;DHT22;61478;50.820;4.330;2023-11-22T02:40:21;8.50;99.90
35523;DHT22;61478;50.820;4.330;2023-11-22T02:42:47;8.50;99.90
35523;DHT22;61478;50.820;4.330;2023-11-22T02:45:17;8.50;99.90
35523;DHT22;61478;50.820;4.330;2023-11-22T02:47:43;8.30;99.90
35523;DHT22;61478;50.820;4.330;2023-11-22T02:50:10;8.30;99.90
35523;DHT22;61478;50.820;4.330;2023-11-22T02:52:36;8.20;99.90
35523;DHT22;61478;50.820;4.330;2023-11-22T02:55:03;8.20;99.90
35523;DHT22;61478;50.820;4.330;2023-11-22T02:57:30;8.20;99.90
35523;DHT22;61478;50.820;4.330;2023-11-22T02:59:56;8.20;99.90
35523;DHT22;61478;50.820;4.330;2023-11-22T03:02:22;8.10;99.90
35523;DHT22;61478;50.820;4.330;2023-11-22T03:04:48;8.20;99.90
35523;DHT22;61478;50.820;4.330;2023-11-22T03:07:13;8.30;99.90
35523;DHT22;61478;50.820;4.330;2023-11-22T03:09:39;8.40;99.90
35523;DHT22;61478;50.820;4.330;2023-11-22T03:12:06;8.50;99.90
35523;DHT22;61478;50.820;4.330;2023-11-22T03:14:34;8.50;99.90
35523;DHT22;61478;50.820;4.330;2023-11-22T03:17:00;8.60;99.90
35523;DHT22;61478;50.820;4.330;2023-11-22T03:19:26;8.60;99.90
35523;DHT22;61478;50.820;4.330;2023-11-22T03:21:51;8.50;99.90
35523;DHT22;61478;50.820;4.330;2023-11-22T03:24:17;8.80;99.90
35523;DHT22;61478;50.820;4.330;2023-11-22T03:26:43;8.50;99.90
35523;DHT22;61478;50.820;4.330;2023-11-22T03:29:09;8.40;99.90
35523;DHT22;61478;50.820;4.330;2023-11-22T03:31:34;8.30;99.90
35523;DHT22;61478;50.820;4.330;2023-11-22T03:34:00;8.30;99.90
35523;DHT22;61478;50.820;4.330;2023-11-22T03:36:26;8.30;99.90
35523;DHT22;61478;50.820;4.330;2023-11-22T03:38:52;8.20;99.90
35523;DHT22;61478;50.820;4.330;2023-11-22T03:41:18;8.10;99.90
35523;DHT22;61478;50.820;4.330;2023-11-22T03:43:44;8.10;99.90
35523;DHT22;61478;50.820;4.330;2023-11-22T03:46:09;8.10;99.90
35523;DHT22;61478;50.820;4.330;2023-11-22T03:48:36;8.10;99.90
35523;DHT22;61478;50.820;4.330;2023-11-22T03:51:02;8.20;99.90
35523;DHT22;61478;50.820;4.330;2023-11-22T03:53:28;8.20;99.90
35523;DHT22;61478;50.820;4.330;2023-11-22T03:55:54;8.30;99.90
35523;DHT22;61478;50.820;4.330;2023-11-22T03:58:19;8.20;99.90
35523;DHT22;61478;50.820;4.330;2023-11-22T04:00:45;8.10;99.90
35523;DHT22;61478;50.820;4.330;2023-11-22T04:03:10;8.20;99.90
35523;DHT22;61478;50.820;4.330;2023-11-22T04:05:36;8.20;99.90
35523;DHT22;61478;50.820;4.330;2023-11-22T04:08:02;8.10;99.90
35523;DHT22;61478;50.820;4.330;2023-11-22T04:10:27;8.30;99.90
35523;DHT22;61478;50.820;4.330;2023-11-22T04:12:53;8.40;99.90
35523;DHT22;61478;50.820;4.330;2023-11-22T04:15:18;8.50;99.90
35523;DHT22;61478;50.820;4.330;2023-11-22T04:17:44;8.40;99.90
35523;DHT22;61478;50.820;4.330;2023-11-22T04:20:10;8.60;99.90
35523;DHT22;61478;50.820;4.330;2023-11-22T04:22:42;8.70;99.90
35523;DHT22;61478;50.820;4.330;2023-11-22T04:25:10;8.90;99.90
35523;DHT22;61478;50.820;4.330;2023-11-22T04:27:39;8.90;99.90
35523;DHT22;61478;50.820;4.330;2023-11-22T04:30:08;8.90;99.90
35523;DHT22;61478;50.820;4.330;2023-11-22T04:32:42;8.90;99.90
35523;DHT22;61478;50.820;4.330;2023-11-22T04:35:08;8.80;99.90
35523;DHT22;61478;50.820;4.330;2023-11-22T04:37:35;8.90;99.90
35523;DHT22;61478;50.820;4.330;2023-11-22T04:40:00;8.90;99.90
35523;DHT22;61478;50.820;4.330;2023-11-22T04:42:26;8.80;99.90
35523;DHT22;61478;50.820;4.330;2023-11-22T04:44:53;8.90;99.90
35523;DHT22;61478;50.820;4.330;2023-11-22T04:47:19;8.90;99.90
35523;DHT22;61478;50.820;4.330;2023-11-22T04:49:44;9.00;99.90
35523;DHT22;61478;50.820;4.330;2023-11-22T04:52:10;9.00;99.90
35523;DHT22;61478;50.820;4.330;2023-11-22T04:54:35;9.00;99.90
35523;DHT22;61478;50.820;4.330;2023-11-22T04:57:01;8.90;99.90
35523;DHT22;61478;50.820;4.330;2023-11-22T04:59:27;8.90;99.90
35523;DHT22;61478;50.820;4.330;2023-11-22T05:01:52;8.60;99.90
35523;DHT22;61478;50.820;4.330;2023-11-22T05:04:18;8.50;99.90
35523;DHT22;61478;50.820;4.330;2023-11-22T05:06:44;8.60;99.90
35523;DHT22;61478;50.820;4.330;2023-11-22T05:09:11;8.60;99.90
35523;DHT22;61478;50.820;4.330;2023-11-22T05:11:38;8.80;99.90
35523;DHT22;61478;50.820;4.330;2023-11-22T05:14:03;8.80;99.90
35523;DHT22;61478;50.820;4.330;2023-11-22T05:16:29;9.00;99.90
35523;DHT22;61478;50.820;4.330;2023-11-22T05:18:55;9.00;99.90
35523;DHT22;61478;50.820;4.330;2023-11-22T05:21:20;9.00;99.90
35523;DHT22;61478;50.820;4.330;2023-11-22T05:23:46;9.10;99.90
35523;DHT22;61478;50.820;4.330;2023-11-22T05:26:11;9.10;99.90
35523;DHT22;61478;50.820;4.330;2023-11-22T05:28:37;9.20;99.90
35523;DHT22;61478;50.820;4.330;2023-11-22T05:31:02;9.10;99.90
35523;DHT22;61478;50.820;4.330;2023-11-22T05:33:28;8.90;99.90
35523;DHT22;61478;50.820;4.330;2023-11-22T05:35:54;8.80;99.90
35523;DHT22;61478;50.820;4.330;2023-11-22T05:38:19;8.70;99.90
35523;DHT22;61478;50.820;4.330;2023-11-22T05:40:45;8.60;99.90
35523;DHT22;61478;50.820;4.330;2023-11-22T05:43:10;8.60;99.90
35523;DHT22;61478;50.820;4.330;2023-11-22T05:45:36;8.70;99.90
35523;DHT22;61478;50.820;4.330;2023-11-22T05:48:01;8.70;99.90
35523;DHT22;61478;50.820;4.330;2023-11-22T05:50:27;8.80;99.90
35523;DHT22;61478;50.820;4.330;2023-11-22T05:52:52;8.90;99.90
35523;DHT22;61478;50.820;4.330;2023-11-22T05:55:18;9.00;99.90
35523;DHT22;61478;50.820;4.330;2023-11-22T05:57:44;9.10;99.90
35523;DHT22;61478;50.820;4.330;2023-11-22T06:00:10;8.90;99.90
35523;DHT22;61478;50.820;4.330;2023-11-22T06:02:36;8.70;99.90
35523;DHT22;61478;50.820;4.330;2023-11-22T06:05:04;8.50;99.90
35523;DHT22;61478;50.820;4.330;2023-11-22T06:07:31;8.70;99.90
35523;DHT22;61478;50.820;4.330;2023-11-22T06:09:56;8.80;99.90
35523;DHT22;61478;50.820;4.330;2023-11-22T06:12:22;8.90;99.90
35523;DHT22;61478;50.820;4.330;2023-11-22T06:14:48;8.60;99.90
35523;DHT22;61478;50.820;4.330;2023-11-22T06:17:14;8.60;99.90
35523;DHT22;61478;50.820;4.330;2023-11-22T06:19:40;8.30;99.90
35523;DHT22;61478;50.820;4.330;2023-11-22T06:22:06;8.00;99.90
35523;DHT22;61478;50.820;4.330;2023-11-22T06:24:32;7.70;99.90
35523;DHT22;61478;50.820;4.330;2023-11-22T06:26:59;7.60;99.90
35523;DHT22;61478;50.820;4.330;2023-11-22T06:29:24;7.60;99.90
35523;DHT22;61478;50.820;4.330;2023-11-22T06:31:50;7.50;99.90
35523;DHT22;61478;50.820;4.330;2023-11-22T06:34:15;7.70;99.90
35523;DHT22;61478;50.820;4.330;2023-11-22T06:36:41;7.60;99.90
35523;DHT22;61478;50.820;4.330;2023-11-22T06:39:06;7.60;99.90
35523;DHT22;61478;50.820;4.330;2023-11-22T06:41:34;7.70;99.90
35523;DHT22;61478;50.820;4.330;2023-11-22T06:44:00;7.60;99.90
35523;DHT22;61478;50.820;4.330;2023-11-22T06:46:25;7.60;99.90
35523;DHT22;61478;50.820;4.330;2023-11-22T06:48:51;7.50;99.90
35523;DHT22;61478;50.820;4.330;2023-11-22T06:51:17;7.60;99.90
35523;DHT22;61478;50.820;4.330;2023-11-22T06:53:44;7.70;99.90
35523;DHT22;61478;50.820;4.330;2023-11-22T06:56:10;7.70;99.90
35523;DHT22;61478;50.820;4.330;2023-11-22T06:58:36;7.70;99.90
35523;DHT22;61478;50.820;4.330;2023-11-22T07:01:01;7.70;99.90
35523;DHT22;61478;50.820;4.330;2023-11-22T07:03:27;7.60;99.90
35523;DHT22;61478;50.820;4.330;2023-11-22T07:05:53;7.70;99.90
35523;DHT22;61478;50.820;4.330;2023-11-22T07:08:18;7.80;99.90
35523;DHT22;61478;50.820;4.330;2023-11-22T07:10:45;7.80;99.90
35523;DHT22;61478;50.820;4.330;2023-11-22T07:13:11;7.90;99.90
35523;DHT22;61478;50.820;4.330;2023-11-22T07:15:38;8.10;99.90
35523;DHT22;61478;50.820;4.330;2023-11-22T07:18:04;8.10;99.90
35523;DHT22;61478;50.820;4.330;2023-11-22T07:20:30;8.00;99.90
35523;DHT22;61478;50.820;4.330;2023-11-22T07:22:56;8.00;99.90
35523;DHT22;61478;50.820;4.330;2023-11-22T07:25:23;8.10;99.90
35523;DHT22;61478;50.820;4.330;2023-11-22T07:27:50;8.00;99.90
35523;DHT22;61478;50.820;4.330;2023-11-22T07:30:16;8.10;99.90
35523;DHT22;61478;50.820;4.330;2023-11-22T07:32:44;8.00;99.90
35523;DHT22;61478;50.820;4.330;2023-11-22T07:35:10;7.80;99.90
35523;DHT22;61478;50.820;4.330;2023-11-22T07:37:37;7.80;99.90
35523;DHT22;61478;50.820;4.330;2023-11-22T07:40:08;8.00;99.90
35523;DHT22;61478;50.820;4.330;2023-11-22T07:42:35;8.00;99.90
35523;DHT22;61478;50.820;4.330;2023-11-22T07:45:00;7.80;99.90
35523;DHT22;61478;50.820;4.330;2023-11-22T07:47:27;8.10;99.90
35523;DHT22;61478;50.820;4.330;2023-11-22T07:49:53;8.10;99.90
35523;DHT22;61478;50.820;4.330;2023-11-22T07:52:21;8.00;99.90
35523;DHT22;61478;50.820;4.330;2023-11-22T07:54:46;7.90;99.90
35523;DHT22;61478;50.820;4.330;2023-11-22T07:57:13;7.90;99.90
35523;DHT22;61478;50.820;4.330;2023-11-22T07:59:38;8.00;99.90
35523;DHT22;61478;50.820;4.330;2023-11-22T08:02:05;8.10;99.90
35523;DHT22;61478;50.820;4.330;2023-11-22T08:04:36;8.00;99.90
35523;DHT22;61478;50.820;4.330;2023-11-22T08:07:02;8.00;99.90
35523;DHT22;61478;50.820;4.330;2023-11-22T08:09:27;7.90;99.90
35523;DHT22;61478;50.820;4.330;2023-11-22T08:11:58;7.90;99.90
35523;DHT22;61478;50.820;4.330;2023-11-22T08:14:24;7.70;99.90
35523;DHT22;61478;50.820;4.330;2023-11-22T08:16:53;7.90;99.90
35523;DHT22;61478;50.820;4.330;2023-11-22T08:19:19;8.20;99.90
35523;DHT22;61478;50.820;4.330;2023-11-22T08:21:44;8.50;99.90
35523;DHT22;61478;50.820;4.330;2023-11-22T08:24:10;8.40;99.90
35523;DHT22;61478;50.820;4.330;2023-11-22T08:26:38;8.50;99.90
35523;DHT22;61478;50.820;4.330;2023-11-22T08:29:04;8.40;99.90
35523;DHT22;61478;50.820;4.330;2023-11-22T08:31:30;8.30;99.90
35523;DHT22;61478;50.820;4.330;2023-11-22T08:33:56;8.20;99.90
35523;DHT22;61478;50.820;4.330;2023-11-22T08:36:22;8.40;99.90
35523;DHT22;61478;50.820;4.330;2023-11-22T08:38:48;8.40;99.90
35523;DHT22;61478;50.820;4.330;2023-11-22T08:41:14;8.40;99.90
35523;DHT22;61478;50.820;4.330;2023-11-22T08:43:40;8.30;99.90
35523;DHT22;61478;50.820;4.330;2023-11-22T08:46:06;8.20;99.90
35523;DHT22;61478;50.820;4.330;2023-11-22T08:48:33;8.00;99.90
35523;DHT22;61478;50.820;4.330;2023-11-22T08:50:59;8.00;99.90
35523;DHT22;61478;50.820;4.330;2023-11-22T08:53:26;7.80;99.90
35523;DHT22;61478;50.820;4.330;2023-11-22T08:55:52;8.00;99.90
35523;DHT22;61478;50.820;4.330;2023-11-22T08:58:20;7.90;99.90
35523;DHT22;61478;50.820;4.330;2023-11-22T09:00:46;7.80;99.90
35523;DHT22;61478;50.820;4.330;2023-11-22T09:03:12;7.80;99.90
35523;DHT22;61478;50.820;4.330;2023-11-22T09:05:41;7.70;99.90
35523;DHT22;61478;50.820;4.330;2023-11-22T09:08:08;7.50;99.90
35523;DHT22;61478;50.820;4.330;2023-11-22T09:10:38;7.40;99.90
35523;DHT22;61478;50.820;4.330;2023-11-22T09:13:04;7.50;99.90
35523;DHT22;61478;50.820;4.330;2023-11-22T09:15:31;7.50;99.90
35523;DHT22;61478;50.820;4.330;2023-11-22T09:17:59;7.60;99.90
35523;DHT22;61478;50.820;4.330;2023-11-22T09:20:24;7.70;99.90
35523;DHT22;61478;50.820;4.330;2023-11-22T09:22:51;7.80;99.90
35523;DHT22;61478;50.820;4.330;2023-11-22T09:25:17;7.80;99.90
35523;DHT22;61478;50.820;4.330;2023-11-22T09:27:44;7.80;99.90
35523;DHT22;61478;50.820;4.330;2023-11-22T09:30:14;7.70;99.90
35523;DHT22;61478;50.820;4.330;2023-11-22T09:33:01;7.70;99.90
35523;DHT22;61478;50.820;4.330;2023-11-22T09:35:27;7.90;99.90
35523;DHT22;61478;50.820;4.330;2023-11-22T09:37:58;8.00;99.90
35523;DHT22;61478;50.820;4.330;2023-11-22T09:40:23;7.90;99.90
35523;DHT22;61478;50.820;4.330;2023-11-22T09:42:49;7.90;99.90
35523;DHT22;61478;50.820;4.330;2023-11-22T09:45:19;7.90;99.90
35523;DHT22;61478;50.820;4.330;2023-11-22T09:47:45;7.90;99.90
35523;DHT22;61478;50.820;4.330;2023-11-22T09:50:14;7.80;99.90
35523;DHT22;61478;50.820;4.330;2023-11-22T09:52:43;7.70;99.90
35523;DHT22;61478;50.820;4.330;2023-11-22T09:55:11;8.10;99.90
35523;DHT22;61478;50.820;4.330;2023-11-22T09:57:37;8.30;99.90
35523;DHT22;61478;50.820;4.330;2023-11-22T10:00:04;8.60;99.90
35523;DHT22;61478;50.820;4.330;2023-11-22T10:02:31;8.60;99.90
35523;DHT22;61478;50.820;4.330;2023-11-22T10:04:57;8.50;99.90
35523;DHT22;61478;50.820;4.330;2023-11-22T10:07:22;8.40;99.90
35523;DHT22;61478;50.820;4.330;2023-11-22T10:09:48;8.40;99.90
35523;DHT22;61478;50.820;4.330;2023-11-22T10:12:18;8.30;99.90
35523;DHT22;61478;50.820;4.330;2023-11-22T10:14:46;8.20;99.90
35523;DHT22;61478;50.820;4.330;2023-11-22T10:17:12;8.10;99.90
35523;DHT22;61478;50.820;4.330;2023-11-22T10:19:40;8.00;99.90
35523;DHT22;61478;50.820;4.330;2023-11-22T10:22:07;8.10;99.90
35523;DHT22;61478;50.820;4.330;2023-11-22T10:24:32;8.10;99.90
35523;DHT22;61478;50.820;4.330;2023-11-22T10:27:01;8.00;99.90
35523;DHT22;61478;50.820;4.330;2023-11-22T10:29:27;8.00;99.90
35523;DHT22;61478;50.820;4.330;2023-11-22T10:31:53;8.10;99.90
35523;DHT22;61478;50.820;4.330;2023-11-22T10:34:23;8.10;99.90
35523;DHT22;61478;50.820;4.330;2023-11-22T10:36:49;8.00;99.90
35523;DHT22;61478;50.820;4.330;2023-11-22T10:39:21;8.40;99.90
35523;DHT22;61478;50.820;4.330;2023-11-22T10:41:47;8.60;99.90
35523;DHT22;61478;50.820;4.330;2023-11-22T10:44:12;8.50;99.90
35523;DHT22;61478;50.820;4.330;2023-11-22T10:46:40;8.10;99.90
35523;DHT22;61478;50.820;4.330;2023-11-22T10:49:06;7.80;99.90
35523;DHT22;61478;50.820;4.330;2023-11-22T10:51:33;7.80;99.90
35523;DHT22;61478;50.820;4.330;2023-11-22T10:54:02;7.70;99.90
35523;DHT22;61478;50.820;4.330;2023-11-22T10:56:28;8.00;99.90
35523;DHT22;61478;50.820;4.330;2023-11-22T10:58:58;8.10;99.90
35523;DHT22;61478;50.820;4.330;2023-11-22T11:01:27;8.30;99.90
35523;DHT22;61478;50.820;4.330;2023-11-22T11:04:02;8.30;99.90
35523;DHT22;61478;50.820;4.330;2023-11-22T11:06:32;8.30;99.90
35523;DHT22;61478;50.820;4.330;2023-11-22T11:09:00;8.10;99.90
35523;DHT22;61478;50.820;4.330;2023-11-22T11:11:27;8.00;99.90
35523;DHT22;61478;50.820;4.330;2023-11-22T11:13:53;7.80;99.90
35523;DHT22;61478;50.820;4.330;2023-11-22T11:16:19;7.70;99.90
35523;DHT22;61478;50.820;4.330;2023-11-22T11:18:44;7.70;99.90
35523;DHT22;61478;50.820;4.330;2023-11-22T11:21:10;7.70;99.90
35523;DHT22;61478;50.820;4.330;2023-11-22T11:23:39;7.80;99.90
35523;DHT22;61478;50.820;4.330;2023-11-22T11:26:15;8.00;99.90
35523;DHT22;61478;50.820;4.330;2023-11-22T11:28:44;8.00;99.90
35523;DHT22;61478;50.820;4.330;2023-11-22T11:31:11;8.20;99.90
35523;DHT22;61478;50.820;4.330;2023-11-22T11:36:28;8.60;99.90
35523;DHT22;61478;50.820;4.330;2023-11-22T11:39:01;8.70;99.90
35523;DHT22;61478;50.820;4.330;2023-11-22T11:41:31;8.90;99.90
35523;DHT22;61478;50.820;4.330;2023-11-22T11:44:04;8.90;99.90
35523;DHT22;61478;50.820;4.330;2023-11-22T11:46:32;9.10;99.90
35523;DHT22;61478;50.820;4.330;2023-11-22T11:48:58;9.40;99.90
35523;DHT22;61478;50.820;4.330;2023-11-22T11:51:25;9.70;99.90
35523;DHT22;61478;50.820;4.330;2023-11-22T11:53:51;9.90;99.90
35523;DHT22;61478;50.820;4.330;2023-11-22T11:56:17;10.00;99.90
35523;DHT22;61478;50.820;4.330;2023-11-22T11:58:47;9.90;99.90
35523;DHT22;61478;50.820;4.330;2023-11-22T12:01:15;9.80;99.90
35523;DHT22;61478;50.820;4.330;2023-11-22T12:03:42;9.70;99.90
35523;DHT22;61478;50.820;4.330;2023-11-22T12:06:09;9.70;99.90
35523;DHT22;61478;50.820;4.330;2023-11-22T12:08:34;9.70;99.90
35523;DHT22;61478;50.820;4.330;2023-11-22T12:11:04;9.50;99.90
35523;DHT22;61478;50.820;4.330;2023-11-22T12:13:30;9.70;99.90
35523;DHT22;61478;50.820;4.330;2023-11-22T12:15:57;9.50;99.90
35523;DHT22;61478;50.820;4.330;2023-11-22T12:18:22;9.70;99.90
35523;DHT22;61478;50.820;4.330;2023-11-22T12:20:58;9.50;99.90
35523;DHT22;61478;50.820;4.330;2023-11-22T12:23:27;9.50;99.90
35523;DHT22;61478;50.820;4.330;2023-11-22T12:25:56;9.40;99.90
35523;DHT22;61478;50.820;4.330;2023-11-22T12:28:23;9.60;99.90
35523;DHT22;61478;50.820;4.330;2023-11-22T12:30:49;9.50;99.90
35523;DHT22;61478;50.820;4.330;2023-11-22T12:33:16;9.30;99.90
35523;DHT22;61478;50.820;4.330;2023-11-22T12:35:43;9.40;99.90
35523;DHT22;61478;50.820;4.330;2023-11-22T12:38:09;9.40;99.90
35523;DHT22;61478;50.820;4.330;2023-11-22T12:40:35;9.20;99.90
35523;DHT22;61478;50.820;4.330;2023-11-22T12:43:01;9.10;99.90
35523;DHT22;61478;50.820;4.330;2023-11-22T12:45:29;9.00;99.90
35523;DHT22;61478;50.820;4.330;2023-11-22T12:47:55;9.10;99.90
35523;DHT22;61478;50.820;4.330;2023-11-22T12:50:37;9.10;99.90
35523;DHT22;61478;50.820;4.330;2023-11-22T12:53:09;9.00;99.90
35523;DHT22;61478;50.820;4.330;2023-11-22T12:55:41;8.90;99.90
35523;DHT22;61478;50.820;4.330;2023-11-22T12:58:07;9.00;99.90
35523;DHT22;61478;50.820;4.330;2023-11-22T13:00:33;9.10;99.90
35523;DHT22;61478;50.820;4.330;2023-11-22T13:02:59;9.10;99.90
35523;DHT22;61478;50.820;4.330;2023-11-22T13:05:24;9.10;99.90
35523;DHT22;61478;50.820;4.330;2023-11-22T13:07:50;9.00;99.90
35523;DHT22;61478;50.820;4.330;2023-11-22T13:10:17;8.90;99.90
35523;DHT22;61478;50.820;4.330;2023-11-22T13:12:43;8.80;99.90
35523;DHT22;61478;50.820;4.330;2023-11-22T13:15:14;8.70;99.90
35523;DHT22;61478;50.820;4.330;2023-11-22T13:17:39;8.70;99.90
35523;DHT22;61478;50.820;4.330;2023-11-22T13:20:08;8.70;99.90
35523;DHT22;61478;50.820;4.330;2023-11-22T13:22:41;8.70;99.90
35523;DHT22;61478;50.820;4.330;2023-11-22T13:25:11;8.70;99.90
35523;DHT22;61478;50.820;4.330;2023-11-22T13:27:38;8.80;99.90
35523;DHT22;61478;50.820;4.330;2023-11-22T13:30:04;8.80;99.90
35523;DHT22;61478;50.820;4.330;2023-11-22T13:32:30;8.80;99.90
35523;DHT22;61478;50.820;4.330;2023-11-22T13:34:56;8.80;99.90
35523;DHT22;61478;50.820;4.330;2023-11-22T13:37:23;8.80;99.90
35523;DHT22;61478;50.820;4.330;2023-11-22T13:39:49;8.80;99.90
35523;DHT22;61478;50.820;4.330;2023-11-22T13:42:14;8.80;99.90
35523;DHT22;61478;50.820;4.330;2023-11-22T13:44:40;8.80;99.90
35523;DHT22;61478;50.820;4.330;2023-11-22T13:47:06;8.80;99.90
35523;DHT22;61478;50.820;4.330;2023-11-22T13:49:33;8.90;99.90
35523;DHT22;61478;50.820;4.330;2023-11-22T13:51:59;8.90;99.90
35523;DHT22;61478;50.820;4.330;2023-11-22T13:54:24;8.90;99.90
35523;DHT22;61478;50.820;4.330;2023-11-22T13:56:50;9.00;99.90
35523;DHT22;61478;50.820;4.330;2023-11-22T13:59:17;9.00;99.90
35523;DHT22;61478;50.820;4.330;2023-11-22T14:01:42;9.00;99.90
35523;DHT22;61478;50.820;4.330;2023-11-22T14:04:08;9.00;99.90
35523;DHT22;61478;50.820;4.330;2023-11-22T14:06:33;9.00;99.90
35523;DHT22;61478;50.820;4.330;2023-11-22T14:08:59;8.90;99.90
35523;DHT22;61478;50.820;4.330;2023-11-22T14:11:25;8.80;99.90
35523;DHT22;61478;50.820;4.330;2023-11-22T14:13:51;8.80;99.90
35523;DHT22;61478;50.820;4.330;2023-11-22T14:16:16;8.80;99.90
35523;DHT22;61478;50.820;4.330;2023-11-22T14:18:42;8.90;99.90
35523;DHT22;61478;50.820;4.330;2023-11-22T14:21:07;8.90;99.90
35523;DHT22;61478;50.820;4.330;2023-11-22T14:23:34;8.90;99.90
35523;DHT22;61478;50.820;4.330;2023-11-22T14:25:59;8.80;99.90
35523;DHT22;61478;50.820;4.330;2023-11-22T14:28:25;8.70;99.90
35523;DHT22;61478;50.820;4.330;2023-11-22T14:30:51;8.90;99.90
35523;DHT22;61478;50.820;4.330;2023-11-22T14:33:20;8.80;99.90
35523;DHT22;61478;50.820;4.330;2023-11-22T14:35:45;8.80;99.90
35523;DHT22;61478;50.820;4.330;2023-11-22T14:38:11;8.80;99.90
35523;DHT22;61478;50.820;4.330;2023-11-22T14:40:38;8.80;99.90
35523;DHT22;61478;50.820;4.330;2023-11-22T14:43:05;8.80;99.90
35523;DHT22;61478;50.820;4.330;2023-11-22T14:45:31;8.80;99.90
35523;DHT22;61478;50.820;4.330;2023-11-22T14:48:00;8.80;99.90
35523;DHT22;61478;50.820;4.330;2023-11-22T14:50:27;8.80;99.90
35523;DHT22;61478;50.820;4.330;2023-11-22T14:52:53;8.70;99.90
35523;DHT22;61478;50.820;4.330;2023-11-22T14:55:20;8.70;99.90
35523;DHT22;61478;50.820;4.330;2023-11-22T14:57:48;8.80;99.90
35523;DHT22;61478;50.820;4.330;2023-11-22T15:00:15;8.80;99.90
35523;DHT22;61478;50.820;4.330;2023-11-22T15:02:42;8.80;99.90
35523;DHT22;61478;50.820;4.330;2023-11-22T15:05:18;8.70;99.90
35523;DHT22;61478;50.820;4.330;2023-11-22T15:07:44;8.80;99.90
35523;DHT22;61478;50.820;4.330;2023-11-22T15:10:10;8.80;99.90
35523;DHT22;61478;50.820;4.330;2023-11-22T15:12:36;8.80;99.90
35523;DHT22;61478;50.820;4.330;2023-11-22T15:15:02;8.80;99.90
35523;DHT22;61478;50.820;4.330;2023-11-22T15:17:28;8.80;99.90
35523;DHT22;61478;50.820;4.330;2023-11-22T15:19:54;9.00;99.90
35523;DHT22;61478;50.820;4.330;2023-11-22T15:22:20;9.00;99.90
35523;DHT22;61478;50.820;4.330;2023-11-22T15:24:46;8.80;99.90
35523;DHT22;61478;50.820;4.330;2023-11-22T15:27:12;9.00;99.90
35523;DHT22;61478;50.820;4.330;2023-11-22T15:29:37;8.90;99.90
35523;DHT22;61478;50.820;4.330;2023-11-22T15:32:03;8.70;99.90
35523;DHT22;61478;50.820;4.330;2023-11-22T15:34:30;8.60;99.90
35523;DHT22;61478;50.820;4.330;2023-11-22T15:36:55;8.60;99.90
35523;DHT22;61478;50.820;4.330;2023-11-22T15:39:21;8.60;99.90
35523;DHT22;61478;50.820;4.330;2023-11-22T15:41:47;8.60;99.90
35523;DHT22;61478;50.820;4.330;2023-11-22T15:44:14;8.60;99.90